Hamilton, Indiana
Current Conditions -  °F | °C
As of 1:35 AM on Thursday 23 Oct 2014 (Local Time) from KANQ Reporting Station
Overcast Overcast  
Wind Chill: 30°   Ceiling: 100
Heat Index: 30°   Visibility: 0.25mi
Dew Point: 16°   Wind: 0mph
Humidity: 55%   Direction: NA
Pressure: 30.28"   Gusts: NA
Location:  41.53°N, 84.92°W
Report Text: KANQ 230535Z AUTO 00000KT 1/4SM OVC001 M01/M09 A3028 RMK
Loading
Personal Weather Stations






























Interactive Weather Map
Tropical Storm Tracking
New forecast layout! Learn more

10-Day Weather Forecast

Advertisements
Track Severe Weather on mobile